createdAt,value
2018-09-05T00:04:07.005Z,45.23
2018-09-05T00:09:11.272Z,45.18
2018-09-05T00:14:14.874Z,45.28
2018-09-05T00:19:18.357Z,45.20
2018-09-05T00:24:21.841Z,45.21
2018-09-05T00:29:25.770Z,45.34
2018-09-05T00:34:29.245Z,45.51
2018-09-05T00:39:32.713Z,45.46
2018-09-05T00:44:36.169Z,44.85
2018-09-05T00:49:39.591Z,45.07
2018-09-05T00:54:43.092Z,45.17
2018-09-05T00:59:46.711Z,45.02
2018-09-05T01:04:50.582Z,45.14
2018-09-05T01:09:54.287Z,44.80
2018-09-05T01:14:57.774Z,45.08
2018-09-05T01:20:01.319Z,44.94
2018-09-05T01:25:05.045Z,44.71
2018-09-05T01:30:08.967Z,45.13
2018-09-05T01:35:12.580Z,44.99
2018-09-05T01:40:16.065Z,44.58
2018-09-05T01:45:19.524Z,45.21
2018-09-05T01:50:27.137Z,44.77
2018-09-05T01:55:30.615Z,44.69
2018-09-05T02:00:35.280Z,44.57
2018-09-05T02:05:38.977Z,44.49
2018-09-05T02:10:42.546Z,44.45
2018-09-05T02:15:46.081Z,44.57
2018-09-05T02:20:49.553Z,44.84
2018-09-05T02:25:53.152Z,44.56
2018-09-05T02:30:56.633Z,44.85
2018-09-05T02:36:00.378Z,44.70
2018-09-05T02:41:03.981Z,44.54
2018-09-05T02:46:07.325Z,45.04
2018-09-05T02:51:10.756Z,44.62
2018-09-05T02:56:14.517Z,44.90
2018-09-05T03:01:18.669Z,44.37
2018-09-05T03:06:22.948Z,44.68
2018-09-05T03:11:26.430Z,44.73
2018-09-05T03:16:29.925Z,44.62
2018-09-05T03:21:33.364Z,44.88
2018-09-05T03:26:36.947Z,44.88
2018-09-05T03:31:40.665Z,44.95
2018-09-05T03:36:44.349Z,44.96
2018-09-05T03:41:47.965Z,44.28
2018-09-05T03:46:51.456Z,44.47
2018-09-05T03:51:54.966Z,46.47
2018-09-05T03:56:58.547Z,46.95
2018-09-05T04:02:02.057Z,46.39
2018-09-05T04:07:06.110Z,47.20
2018-09-05T04:12:09.714Z,47.33
2018-09-05T04:17:13.648Z,47.34
2018-09-05T04:22:17.155Z,46.95
2018-09-05T04:27:20.697Z,47.50
2018-09-05T04:32:24.214Z,47.23
2018-09-05T04:37:27.929Z,46.73
2018-09-05T04:42:31.753Z,46.68
2018-09-05T04:47:36.665Z,46.90
2018-09-05T04:52:40.208Z,46.96
2018-09-05T04:57:43.637Z,46.90
2018-09-05T05:02:47.097Z,46.49
2018-09-05T05:07:50.560Z,46.35
2018-09-05T05:12:54.021Z,46.42
2018-09-05T05:17:57.513Z,46.54
2018-09-05T05:23:00.957Z,46.63
2018-09-05T05:28:04.698Z,46.35
2018-09-05T05:33:08.150Z,46.69
2018-09-05T05:38:11.616Z,46.56
2018-09-05T05:43:15.165Z,46.90
2018-09-05T05:48:19.072Z,46.92
2018-09-05T05:53:22.556Z,46.52
2018-09-05T05:58:26.194Z,46.63
2018-09-05T06:03:29.830Z,46.82
2018-09-05T06:08:33.651Z,46.95
2018-09-05T06:13:37.690Z,47.14
2018-09-05T06:18:41.742Z,47.50
2018-09-05T06:23:45.328Z,47.19
2018-09-05T06:28:49.156Z,47.35
2018-09-05T06:33:53.079Z,47.55
2018-09-05T06:38:56.837Z,47.82
2018-09-05T06:44:00.603Z,47.79
2018-09-05T06:49:04.630Z,47.66
2018-09-05T06:54:08.249Z,47.46
2018-09-05T06:59:12.517Z,47.54
2018-09-05T07:04:16.207Z,47.63
2018-09-05T07:09:19.710Z,47.94
2018-09-05T07:14:23.195Z,47.54
2018-09-05T07:19:26.665Z,47.83
2018-09-05T07:24:30.105Z,49.01
2018-09-05T07:29:33.997Z,49.93
2018-09-05T07:34:37.462Z,49.79
2018-09-05T07:39:41.640Z,50.05
2018-09-05T07:44:45.107Z,50.37
2018-09-05T07:49:48.556Z,50.27
2018-09-05T07:54:52.036Z,50.70
2018-09-05T07:59:55.487Z,50.48
2018-09-05T08:04:58.981Z,50.36
2018-09-05T08:10:02.815Z,50.50
2018-09-05T08:15:06.862Z,50.25
2018-09-05T08:20:10.367Z,50.97
2018-09-05T08:25:13.972Z,50.90
2018-09-05T08:30:17.504Z,50.30
2018-09-05T08:35:21.269Z,50.20
2018-09-05T08:40:24.602Z,50.05
2018-09-05T08:45:28.573Z,49.83
2018-09-05T08:50:31.694Z,49.66
2018-09-05T08:55:35.166Z,49.16
2018-09-05T09:00:38.641Z,49.35
2018-09-05T09:05:42.217Z,48.54
2018-09-05T09:10:45.749Z,48.31
2018-09-05T09:15:49.508Z,48.29
2018-09-05T09:20:52.985Z,48.68
2018-09-05T09:25:56.488Z,48.26
2018-09-05T09:31:00.005Z,46.58
2018-09-05T09:36:03.654Z,46.23
2018-09-05T09:41:07.257Z,47.12
2018-09-05T09:46:10.877Z,46.04
2018-09-05T09:51:14.333Z,45.66
2018-09-05T09:56:17.821Z,44.90
2018-09-05T10:01:26.710Z,45.12
2018-09-05T10:06:35.402Z,44.81
2018-09-05T10:11:44.225Z,45.20
2018-09-05T10:16:53.139Z,45.75
2018-09-05T10:21:56.959Z,45.46
2018-09-05T10:27:00.474Z,45.75
2018-09-05T10:32:04.101Z,45.39
2018-09-05T10:37:07.640Z,46.23
2018-09-05T10:42:11.532Z,46.30
2018-09-05T10:47:15.045Z,46.12
2018-09-05T10:52:18.760Z,46.31
2018-09-05T10:57:22.491Z,46.54
2018-09-05T11:02:26.084Z,45.85
2018-09-05T11:07:29.823Z,46.32
2018-09-05T11:12:33.336Z,45.69
2018-09-05T11:17:37.160Z,45.82
2018-09-05T11:22:41.077Z,45.82
2018-09-05T11:27:44.639Z,45.57
2018-09-05T11:32:48.262Z,45.59
2018-09-05T11:37:51.816Z,45.20
2018-09-05T11:42:55.654Z,45.44
2018-09-05T11:47:59.185Z,45.19
2018-09-05T11:53:02.677Z,45.78
2018-09-05T11:58:06.402Z,45.35
2018-09-05T12:03:10.222Z,45.46
2018-09-05T12:08:13.843Z,45.40
2018-09-05T12:13:17.761Z,45.18
2018-09-05T12:18:21.378Z,45.26
2018-09-05T12:23:25.006Z,45.67
2018-09-05T12:28:28.672Z,45.76
2018-09-05T12:33:32.362Z,45.49
2018-09-05T12:38:36.167Z,45.78
2018-09-05T12:43:39.599Z,45.80
2018-09-05T12:48:43.158Z,45.73
2018-09-05T12:53:46.828Z,45.54
2018-09-05T12:58:50.372Z,45.49
2018-09-05T13:03:53.978Z,45.57
2018-09-05T13:08:57.518Z,45.63
2018-09-05T13:14:01.161Z,45.82
2018-09-05T13:19:04.673Z,46.07
2018-09-05T13:24:08.112Z,46.09
2018-09-05T13:29:11.830Z,46.34
2018-09-05T13:34:15.314Z,46.68
2018-09-05T13:39:18.781Z,46.52
2018-09-05T13:44:22.239Z,46.13
2018-09-05T13:49:25.953Z,46.35
2018-09-05T13:54:29.506Z,46.38
2018-09-05T13:59:33.633Z,46.61
2018-09-05T14:04:37.549Z,46.58
2018-09-05T14:09:41.364Z,46.54
2018-09-05T14:14:44.878Z,46.07
2018-09-05T14:19:48.372Z,46.27
2018-09-05T14:24:51.897Z,46.40
2018-09-05T14:29:55.394Z,46.67
2018-09-05T14:34:58.945Z,46.44
2018-09-05T14:40:02.477Z,46.36
2018-09-05T14:45:06.175Z,46.89
2018-09-05T14:50:09.784Z,46.23
2018-09-05T14:55:13.297Z,46.37
2018-09-05T15:00:17.934Z,46.41
2018-09-05T15:05:21.461Z,46.51
2018-09-05T15:10:25.005Z,46.44
2018-09-05T15:15:28.458Z,46.43
2018-09-05T15:20:32.103Z,46.23
2018-09-05T15:25:36.242Z,46.40
2018-09-05T15:30:39.761Z,46.60
2018-09-05T15:35:43.493Z,46.74
2018-09-05T15:40:47.114Z,46.89
2018-09-05T15:45:50.602Z,46.97
2018-09-05T15:50:54.349Z,46.61
2018-09-05T15:55:58.058Z,47.13
2018-09-05T16:01:01.770Z,47.98
2018-09-05T16:06:05.715Z,48.72
2018-09-05T16:11:09.780Z,48.96
2018-09-05T16:16:13.432Z,49.72
2018-09-05T16:21:17.036Z,50.19
2018-09-05T16:26:20.604Z,50.28
2018-09-05T16:31:27.082Z,50.55
2018-09-05T16:36:30.786Z,50.59
2018-09-05T16:41:34.384Z,50.68
2018-09-05T16:46:38.116Z,50.69
2018-09-05T16:51:42.137Z,49.83
2018-09-05T16:56:46.391Z,50.00
2018-09-05T17:01:49.956Z,49.92
2018-09-05T17:06:53.854Z,50.03
2018-09-05T17:11:57.666Z,49.36
2018-09-05T17:17:02.091Z,49.58
2018-09-05T17:22:05.616Z,49.51
2018-09-05T17:27:09.198Z,49.01
2018-09-05T17:32:12.942Z,49.38
2018-09-05T17:37:16.414Z,49.49
2018-09-05T17:42:20.071Z,49.23
2018-09-05T17:47:23.815Z,49.22
2018-09-05T17:52:27.294Z,49.03
2018-09-05T17:57:30.919Z,48.80
2018-09-05T18:02:34.649Z,48.79
2018-09-05T18:07:38.260Z,49.04
2018-09-05T18:12:41.737Z,49.07
2018-09-05T18:17:45.322Z,48.98
2018-09-05T18:22:49.272Z,48.93
2018-09-05T18:27:53.330Z,48.58
2018-09-05T18:32:56.984Z,49.01
2018-09-05T18:38:00.865Z,48.81
2018-09-05T18:43:04.589Z,48.19
2018-09-05T18:48:08.331Z,48.27
2018-09-05T18:53:13.364Z,47.95
2018-09-05T18:58:17.129Z,47.56
2018-09-05T19:03:20.921Z,47.86
2018-09-05T19:08:24.857Z,47.65
2018-09-05T19:13:28.390Z,47.31
2018-09-05T19:18:31.960Z,47.89
2018-09-05T19:23:36.426Z,47.94
2018-09-05T19:28:39.874Z,47.65
2018-09-05T19:33:43.386Z,47.70
2018-09-05T19:38:47.380Z,47.94
2018-09-05T19:43:51.075Z,47.56
2018-09-05T19:48:54.746Z,47.55
2018-09-05T19:53:58.837Z,47.40
2018-09-05T19:59:02.664Z,47.03
2018-09-05T20:04:06.373Z,46.98
2018-09-05T20:09:10.111Z,46.77
2018-09-05T20:14:13.790Z,46.97
2018-09-05T20:19:17.439Z,46.98
2018-09-05T20:24:20.895Z,47.39
2018-09-05T20:29:24.625Z,47.30
2018-09-05T20:34:28.205Z,47.01
2018-09-05T20:39:31.944Z,47.00
2018-09-05T20:44:35.726Z,46.60
2018-09-05T20:49:39.233Z,46.72
2018-09-05T20:54:42.854Z,46.92
2018-09-05T20:59:46.591Z,45.93
2018-09-05T21:04:50.050Z,45.49
2018-09-05T21:09:53.545Z,45.37
2018-09-05T21:14:57.025Z,45.30
2018-09-05T21:20:00.542Z,45.15
2018-09-05T21:25:04.330Z,44.83
2018-09-05T21:30:07.882Z,45.25
2018-09-05T21:35:11.613Z,45.24
2018-09-05T21:40:15.313Z,44.66
2018-09-05T21:45:18.765Z,44.76
2018-09-05T21:50:22.339Z,44.54
2018-09-05T21:55:26.167Z,44.34
2018-09-05T22:00:29.783Z,44.38
2018-09-05T22:05:33.230Z,44.43
2018-09-05T22:10:36.758Z,44.42
2018-09-05T22:15:44.279Z,44.34
2018-09-05T22:20:47.927Z,44.04
2018-09-05T22:25:51.497Z,44.06
2018-09-05T22:30:54.909Z,43.91
2018-09-05T22:35:58.355Z,44.12
2018-09-05T22:41:01.936Z,44.08
2018-09-05T22:46:16.774Z,44.25
2018-09-05T22:53:39.759Z,44.06
2018-09-05T22:59:31.041Z,43.92
2018-09-05T23:04:49.382Z,43.89
2018-09-05T23:10:04.247Z,43.86
2018-09-05T23:15:18.866Z,43.88
2018-09-05T23:20:31.956Z,43.66
2018-09-05T23:25:35.424Z,43.70
2018-09-05T23:30:38.925Z,43.88
2018-09-05T23:35:42.548Z,43.90
2018-09-05T23:40:46.101Z,44.06
2018-09-05T23:45:49.693Z,43.61
2018-09-05T23:50:53.903Z,43.70
2018-09-05T23:55:57.592Z,43.54
